sensor_id;sensor_type;location;lat;lon;timestamp;pressure;altitude;pressure_sealevel;temperature;humidity
7668;BME280;3876;42.204;24.686;2023-01-01T00:01:07;100924.25;;;4.30;100.00
7668;BME280;3876;42.204;24.686;2023-01-01T00:03:34;100919.06;;;4.27;100.00
7668;BME280;3876;42.204;24.686;2023-01-01T00:06:04;100922.63;;;4.35;100.00
7668;BME280;3876;42.204;24.686;2023-01-01T00:08:33;100921.69;;;4.30;100.00
7668;BME280;3876;42.204;24.686;2023-01-01T00:11:00;100924.25;;;4.30;100.00
7668;BME280;3876;42.204;24.686;2023-01-01T00:13:27;100927.41;;;4.19;100.00
7668;BME280;3876;42.204;24.686;2023-01-01T00:15:54;100929.00;;;4.14;100.00
7668;BME280;3876;42.204;24.686;2023-01-01T00:18:21;100912.50;;;3.94;100.00
7668;BME280;3876;42.204;24.686;2023-01-01T00:20:47;100930.34;;;3.97;100.00
7668;BME280;3876;42.204;24.686;2023-01-01T00:23:14;100932.03;;;3.98;100.00
7668;BME280;3876;42.204;24.686;2023-01-01T00:25:42;100935.53;;;4.03;100.00
7668;BME280;3876;42.204;24.686;2023-01-01T00:28:09;100943.16;;;4.05;100.00
7668;BME280;3876;42.204;24.686;2023-01-01T00:30:38;100938.91;;;4.02;100.00
7668;BME280;3876;42.204;24.686;2023-01-01T00:33:06;100933.03;;;4.05;100.00
7668;BME280;3876;42.204;24.686;2023-01-01T00:35:32;100943.16;;;4.03;100.00
7668;BME280;3876;42.204;24.686;2023-01-01T00:37:59;100940.63;;;4.03;100.00
7668;BME280;3876;42.204;24.686;2023-01-01T00:40:26;100947.38;;;4.04;100.00
7668;BME280;3876;42.204;24.686;2023-01-01T00:42:54;100941.53;;;4.07;100.00
7668;BME280;3876;42.204;24.686;2023-01-01T00:45:21;100942.44;;;4.10;100.00
7668;BME280;3876;42.204;24.686;2023-01-01T00:47:48;100941.59;;;4.10;100.00
7668;BME280;3876;42.204;24.686;2023-01-01T00:50:15;100942.59;;;4.16;100.00
7668;BME280;3876;42.204;24.686;2023-01-01T00:52:42;100940.03;;;4.16;100.00
7668;BME280;3876;42.204;24.686;2023-01-01T00:55:10;100946.00;;;4.18;100.00
7668;BME280;3876;42.204;24.686;2023-01-01T00:57:37;100939.13;;;4.14;100.00
7668;BME280;3876;42.204;24.686;2023-01-01T01:00:06;100942.69;;;4.22;100.00
7668;BME280;3876;42.204;24.686;2023-01-01T01:02:34;100946.97;;;4.25;100.00
7668;BME280;3876;42.204;24.686;2023-01-01T01:05:01;100953.78;;;4.28;100.00
7668;BME280;3876;42.204;24.686;2023-01-01T01:07:32;100949.63;;;4.30;100.00
7668;BME280;3876;42.204;24.686;2023-01-01T01:10:00;100948.75;;;4.29;100.00
7668;BME280;3876;42.204;24.686;2023-01-01T01:12:26;100952.13;;;4.28;100.00
7668;BME280;3876;42.204;24.686;2023-01-01T01:14:53;100947.91;;;4.30;100.00
7668;BME280;3876;42.204;24.686;2023-01-01T01:17:21;100941.16;;;4.31;100.00
7668;BME280;3876;42.204;24.686;2023-01-01T01:19:48;100941.16;;;4.31;100.00
7668;BME280;3876;42.204;24.686;2023-01-01T01:22:15;100940.28;;;4.30;100.00
7668;BME280;3876;42.204;24.686;2023-01-01T01:24:41;100940.25;;;4.27;100.00
7668;BME280;3876;42.204;24.686;2023-01-01T01:27:08;100928.19;;;4.17;100.00
7668;BME280;3876;42.204;24.686;2023-01-01T01:29:35;100940.19;;;4.24;100.00
7668;BME280;3876;42.204;24.686;2023-01-01T01:32:02;100940.28;;;4.29;100.00
7668;BME280;3876;42.204;24.686;2023-01-01T01:34:30;100949.53;;;4.27;100.00
7668;BME280;3876;42.204;24.686;2023-01-01T01:36:57;100934.75;;;4.07;100.00
7668;BME280;3876;42.204;24.686;2023-01-01T01:39:23;100935.50;;;4.00;100.00
7668;BME280;3876;42.204;24.686;2023-01-01T01:41:50;100932.03;;;3.98;100.00
7668;BME280;3876;42.204;24.686;2023-01-01T01:44:49;100929.38;;;3.91;100.00
7668;BME280;3876;42.204;24.686;2023-01-01T01:47:20;100926.59;;;3.80;100.00
7668;BME280;3876;42.204;24.686;2023-01-01T01:49:52;100937.28;;;3.67;100.00
7668;BME280;3876;42.204;24.686;2023-01-01T01:52:20;100932.88;;;3.58;100.00
7668;BME280;3876;42.204;24.686;2023-01-01T01:54:47;100931.09;;;3.56;100.00
7668;BME280;3876;42.204;24.686;2023-01-01T01:57:15;100928.50;;;3.51;100.00
7668;BME280;3876;42.204;24.686;2023-01-01T01:59:45;100937.63;;;3.45;100.00
7668;BME280;3876;42.204;24.686;2023-01-01T02:02:18;100939.19;;;3.40;100.00
7668;BME280;3876;42.204;24.686;2023-01-01T02:04:49;100954.47;;;3.43;100.00
7668;BME280;3876;42.204;24.686;2023-01-01T02:07:16;100945.19;;;3.43;100.00
7668;BME280;3876;42.204;24.686;2023-01-01T02:09:44;100945.25;;;3.45;100.00
7668;BME280;3876;42.204;24.686;2023-01-01T02:12:11;100941.06;;;3.47;100.00
7668;BME280;3876;42.204;24.686;2023-01-01T02:14:38;100939.44;;;3.49;100.00
7668;BME280;3876;42.204;24.686;2023-01-01T02:17:08;100923.63;;;3.25;100.00
7668;BME280;3876;42.204;24.686;2023-01-01T02:19:45;100937.63;;;3.45;100.00
7668;BME280;3876;42.204;24.686;2023-01-01T02:22:27;100934.34;;;3.49;100.00
7668;BME280;3876;42.204;24.686;2023-01-01T02:25:08;100940.31;;;3.51;100.00
7668;BME280;3876;42.204;24.686;2023-01-01T02:27:47;100937.03;;;3.55;100.00
7668;BME280;3876;42.204;24.686;2023-01-01T02:30:19;100927.75;;;3.57;100.00
7668;BME280;3876;42.204;24.686;2023-01-01T02:32:48;100933.75;;;3.60;100.00
7668;BME280;3876;42.204;24.686;2023-01-01T02:35:20;100934.56;;;3.58;100.00
7668;BME280;3876;42.204;24.686;2023-01-01T02:38:06;100937.03;;;3.56;100.00
7668;BME280;3876;42.204;24.686;2023-01-01T02:40:39;100942.03;;;3.52;100.00
7668;BME280;3876;42.204;24.686;2023-01-01T02:43:07;100941.97;;;3.50;100.00
7668;BME280;3876;42.204;24.686;2023-01-01T02:45:35;100949.47;;;3.46;100.00
7668;BME280;3876;42.204;24.686;2023-01-01T02:48:04;100945.97;;;3.41;100.00
7668;BME280;3876;42.204;24.686;2023-01-01T02:50:31;100938.34;;;3.39;100.00
7668;BME280;3876;42.204;24.686;2023-01-01T02:53:06;100947.50;;;3.33;100.00
7668;BME280;3876;42.204;24.686;2023-01-01T02:55:45;100931.16;;;3.22;100.00
7668;BME280;3876;42.204;24.686;2023-01-01T02:58:17;100943.25;;;3.33;100.00
7668;BME280;3876;42.204;24.686;2023-01-01T03:01:13;100941.50;;;3.29;100.00
7668;BME280;3876;42.204;24.686;2023-01-01T03:03:49;100929.78;;;3.34;100.00
7668;BME280;3876;42.204;24.686;2023-01-01T03:06:26;100933.25;;;3.38;100.00
7668;BME280;3876;42.204;24.686;2023-01-01T03:09:02;100934.13;;;3.40;100.00
7668;BME280;3876;42.204;24.686;2023-01-01T03:11:36;100940.03;;;3.39;100.00
7668;BME280;3876;42.204;24.686;2023-01-01T03:14:12;100935.66;;;3.33;100.00
7668;BME280;3876;42.204;24.686;2023-01-01T03:16:46;100926.91;;;3.21;100.00
7668;BME280;3876;42.204;24.686;2023-01-01T03:19:17;100938.78;;;3.22;100.00
7668;BME280;3876;42.204;24.686;2023-01-01T03:21:49;100942.94;;;3.20;100.00
7668;BME280;3876;42.204;24.686;2023-01-01T03:24:21;100938.69;;;3.18;100.00
7668;BME280;3876;42.204;24.686;2023-01-01T03:26:52;100933.69;;;3.22;100.00
7668;BME280;3876;42.204;24.686;2023-01-01T03:29:21;100940.56;;;3.26;100.00
7668;BME280;3876;42.204;24.686;2023-01-01T03:31:52;100932.03;;;3.24;100.00
7668;BME280;3876;42.204;24.686;2023-01-01T03:34:25;100938.84;;;3.25;100.00
7668;BME280;3876;42.204;24.686;2023-01-01T03:36:56;100937.03;;;3.21;100.00
7668;BME280;3876;42.204;24.686;2023-01-01T03:39:26;100949.84;;;3.25;100.00
7668;BME280;3876;42.204;24.686;2023-01-01T03:42:03;100943.91;;;3.25;100.00
7668;BME280;3876;42.204;24.686;2023-01-01T03:44:37;100946.16;;;3.12;100.00
7668;BME280;3876;42.204;24.686;2023-01-01T03:47:08;100955.38;;;3.10;100.00
7668;BME280;3876;42.204;24.686;2023-01-01T03:49:35;100952.09;;;3.14;100.00
7668;BME280;3876;42.204;24.686;2023-01-01T03:52:17;100938.47;;;3.09;100.00
7668;BME280;3876;42.204;24.686;2023-01-01T03:54:51;100935.03;;;3.07;100.00
7668;BME280;3876;42.204;24.686;2023-01-01T03:57:21;100954.69;;;3.16;100.00
7668;BME280;3876;42.204;24.686;2023-01-01T03:59:55;100959.78;;;3.17;100.00
7668;BME280;3876;42.204;24.686;2023-01-01T04:02:30;100938.25;;;3.00;100.00
7668;BME280;3876;42.204;24.686;2023-01-01T04:05:02;100954.56;;;3.11;100.00
7668;BME280;3876;42.204;24.686;2023-01-01T04:07:32;100952.09;;;3.14;100.00
7668;BME280;3876;42.204;24.686;2023-01-01T04:10:00;100958.03;;;3.15;100.00
7668;BME280;3876;42.204;24.686;2023-01-01T04:12:42;100957.03;;;3.08;100.00
7668;BME280;3876;42.204;24.686;2023-01-01T04:15:09;100951.81;;;3.02;100.00
7668;BME280;3876;42.204;24.686;2023-01-01T04:17:37;100956.88;;;3.02;100.00
7668;BME280;3876;42.204;24.686;2023-01-01T04:20:05;100950.81;;;2.97;100.00
7668;BME280;3876;42.204;24.686;2023-01-01T04:22:33;100950.00;;;2.98;100.00
7668;BME280;3876;42.204;24.686;2023-01-01T04:25:00;100955.94;;;2.99;100.00
7668;BME280;3876;42.204;24.686;2023-01-01T04:27:27;100957.66;;;3.00;100.00
7668;BME280;3876;42.204;24.686;2023-01-01T04:29:53;100961.00;;;2.99;100.00
7668;BME280;3876;42.204;24.686;2023-01-01T04:32:20;100957.63;;;2.98;100.00
7668;BME280;3876;42.204;24.686;2023-01-01T04:34:49;100958.53;;;3.00;100.00
7668;BME280;3876;42.204;24.686;2023-01-01T04:37:16;100968.66;;;3.00;100.00
7668;BME280;3876;42.204;24.686;2023-01-01T04:39:42;100951.59;;;2.93;100.00
7668;BME280;3876;42.204;24.686;2023-01-01T04:42:09;100951.75;;;2.99;100.00
7668;BME280;3876;42.204;24.686;2023-01-01T04:44:36;100946.66;;;2.99;100.00
7668;BME280;3876;42.204;24.686;2023-01-01T04:47:03;100953.47;;;3.00;100.00
7668;BME280;3876;42.204;24.686;2023-01-01T04:49:30;100959.34;;;3.01;100.00
7668;BME280;3876;42.204;24.686;2023-01-01T04:51:58;100946.66;;;2.99;100.00
7668;BME280;3876;42.204;24.686;2023-01-01T04:54:25;100956.81;;;3.01;100.00
7668;BME280;3876;42.204;24.686;2023-01-01T04:56:51;100953.41;;;2.99;100.00
7668;BME280;3876;42.204;24.686;2023-01-01T04:59:18;100956.81;;;2.99;100.00
7668;BME280;3876;42.204;24.686;2023-01-01T05:01:45;100943.00;;;2.88;100.00
7668;BME280;3876;42.204;24.686;2023-01-01T05:04:13;100961.88;;;2.99;100.00
7668;BME280;3876;42.204;24.686;2023-01-01T05:06:42;100954.94;;;2.92;100.00
7668;BME280;3876;42.204;24.686;2023-01-01T05:09:11;100966.63;;;2.87;100.00
7668;BME280;3876;42.204;24.686;2023-01-01T05:11:38;100961.31;;;2.78;100.00
7668;BME280;3876;42.204;24.686;2023-01-01T05:14:06;100967.22;;;2.79;100.00
7668;BME280;3876;42.204;24.686;2023-01-01T05:16:34;100940.66;;;2.63;100.00
7668;BME280;3876;42.204;24.686;2023-01-01T05:19:02;100963.75;;;2.75;100.00
7668;BME280;3876;42.204;24.686;2023-01-01T05:21:31;100973.09;;;2.76;100.00
7668;BME280;3876;42.204;24.686;2023-01-01T05:23:59;100984.50;;;2.62;100.00
7668;BME280;3876;42.204;24.686;2023-01-01T05:26:29;100982.81;;;2.61;100.00
7668;BME280;3876;42.204;24.686;2023-01-01T05:28:57;100982.44;;;2.49;100.00
7668;BME280;3876;42.204;24.686;2023-01-01T05:31:25;100977.38;;;2.47;100.00
7668;BME280;3876;42.204;24.686;2023-01-01T05:33:52;100978.94;;;2.42;100.00
7668;BME280;3876;42.204;24.686;2023-01-01T05:36:21;100982.44;;;2.49;100.00
7668;BME280;3876;42.204;24.686;2023-01-01T05:38:49;100971.34;;;2.42;100.00
7668;BME280;3876;42.204;24.686;2023-01-01T05:41:16;100968.09;;;2.48;100.00
7668;BME280;3876;42.204;24.686;2023-01-01T05:43:45;100992.78;;;2.55;100.00
7668;BME280;3876;42.204;24.686;2023-01-01T05:46:14;100971.41;;;2.45;100.00
7668;BME280;3876;42.204;24.686;2023-01-01T05:48:41;100992.00;;;2.57;100.00
7668;BME280;3876;42.204;24.686;2023-01-01T05:51:10;100973.31;;;2.54;100.00
7668;BME280;3876;42.204;24.686;2023-01-01T05:53:37;100986.16;;;2.60;100.00
7668;BME280;3876;42.204;24.686;2023-01-01T05:56:05;100974.22;;;2.56;100.00
7668;BME280;3876;42.204;24.686;2023-01-01T05:58:33;100987.09;;;2.63;100.00
7668;BME280;3876;42.204;24.686;2023-01-01T06:01:06;100993.00;;;2.64;100.00
7668;BME280;3876;42.204;24.686;2023-01-01T06:03:33;100983.66;;;2.61;100.00
7668;BME280;3876;42.204;24.686;2023-01-01T06:06:02;100991.38;;;2.66;100.00
7668;BME280;3876;42.204;24.686;2023-01-01T06:08:29;100991.38;;;2.66;100.00
7668;BME280;3876;42.204;24.686;2023-01-01T06:10:58;100994.81;;;2.68;100.00
7668;BME280;3876;42.204;24.686;2023-01-01T06:13:24;100992.22;;;2.67;100.00
7668;BME280;3876;42.204;24.686;2023-01-01T06:15:53;100990.56;;;2.67;100.00
7668;BME280;3876;42.204;24.686;2023-01-01T06:18:22;100996.50;;;2.69;100.00
7668;BME280;3876;42.204;24.686;2023-01-01T06:20:49;100994.81;;;2.68;100.00
7668;BME280;3876;42.204;24.686;2023-01-01T06:23:16;100988.03;;;2.67;100.00
7668;BME280;3876;42.204;24.686;2023-01-01T06:25:43;100987.13;;;2.65;100.00
7668;BME280;3876;42.204;24.686;2023-01-01T06:28:10;100981.72;;;2.53;100.00
7668;BME280;3876;42.204;24.686;2023-01-01T06:30:37;100981.88;;;2.57;100.00
7668;BME280;3876;42.204;24.686;2023-01-01T06:33:04;100985.97;;;2.54;100.00
7668;BME280;3876;42.204;24.686;2023-01-01T06:35:32;100991.75;;;2.48;100.00
7668;BME280;3876;42.204;24.686;2023-01-01T06:37:59;100982.28;;;2.43;100.00
7668;BME280;3876;42.204;24.686;2023-01-01T06:40:26;100991.75;;;2.48;100.00
7668;BME280;3876;42.204;24.686;2023-01-01T06:42:52;101001.09;;;2.51;100.00
7668;BME280;3876;42.204;24.686;2023-01-01T06:45:19;101002.03;;;2.54;100.00
7668;BME280;3876;42.204;24.686;2023-01-01T06:47:46;101004.59;;;2.56;100.00
7668;BME280;3876;42.204;24.686;2023-01-01T06:50:13;101011.38;;;2.57;100.00
7668;BME280;3876;42.204;24.686;2023-01-01T06:52:41;101008.94;;;2.60;100.00
7668;BME280;3876;42.204;24.686;2023-01-01T06:55:08;101014.88;;;2.62;100.00
7668;BME280;3876;42.204;24.686;2023-01-01T06:57:35;101009.91;;;2.65;100.00
7668;BME280;3876;42.204;24.686;2023-01-01T07:00:02;101005.03;;;2.71;100.00
7668;BME280;3876;42.204;24.686;2023-01-01T07:02:29;100977.75;;;2.61;100.00
7668;BME280;3876;42.204;24.686;2023-01-01T07:04:55;101013.59;;;2.76;100.00
7668;BME280;3876;42.204;24.686;2023-01-01T07:07:22;101005.28;;;2.80;100.00
7668;BME280;3876;42.204;24.686;2023-01-01T07:09:50;101006.25;;;2.85;100.00
7668;BME280;3876;42.204;24.686;2023-01-01T07:12:17;101002.00;;;2.84;100.00
7668;BME280;3876;42.204;24.686;2023-01-01T07:14:44;101003.94;;;2.94;100.00
7668;BME280;3876;42.204;24.686;2023-01-01T07:17:10;101002.25;;;2.93;100.00
7668;BME280;3876;42.204;24.686;2023-01-01T07:19:37;101007.53;;;3.02;100.00
7668;BME280;3876;42.204;24.686;2023-01-01T07:22:04;101011.81;;;3.05;100.00
7668;BME280;3876;42.204;24.686;2023-01-01T07:24:31;101006.03;;;3.09;100.00
7668;BME280;3876;42.204;24.686;2023-01-01T07:26:59;101015.34;;;3.10;100.00
7668;BME280;3876;42.204;24.686;2023-01-01T07:29:26;100989.00;;;3.03;100.00
7668;BME280;3876;42.204;24.686;2023-01-01T07:31:52;101016.44;;;3.20;100.00
7668;BME280;3876;42.204;24.686;2023-01-01T07:34:19;101009.72;;;3.22;100.00
7668;BME280;3876;42.204;24.686;2023-01-01T07:36:48;100999.53;;;3.20;100.00
7668;BME280;3876;42.204;24.686;2023-01-01T07:39:15;101011.59;;;3.29;100.00
7668;BME280;3876;42.204;24.686;2023-01-01T07:41:41;101003.94;;;3.27;100.00
7668;BME280;3876;42.204;24.686;2023-01-01T07:44:09;101018.63;;;3.39;100.00
7668;BME280;3876;42.204;24.686;2023-01-01T07:46:36;101022.97;;;3.44;100.00
7668;BME280;3876;42.204;24.686;2023-01-01T07:49:03;101035.72;;;3.47;100.00
7668;BME280;3876;42.204;24.686;2023-01-01T07:51:30;101034.13;;;3.52;100.00
7668;BME280;3876;42.204;24.686;2023-01-01T07:53:57;101034.34;;;3.60;100.00
7668;BME280;3876;42.204;24.686;2023-01-01T07:56:23;101039.69;;;3.72;100.00
7668;BME280;3876;42.204;24.686;2023-01-01T07:58:50;101043.28;;;3.80;100.00
7668;BME280;3876;42.204;24.686;2023-01-01T08:01:18;101039.19;;;3.87;100.00
7668;BME280;3876;42.204;24.686;2023-01-01T08:03:50;101040.25;;;3.96;100.00
7668;BME280;3876;42.204;24.686;2023-01-01T08:06:18;101023.38;;;3.98;100.00
7668;BME280;3876;42.204;24.686;2023-01-01T08:08:46;101043.31;;;4.19;100.00
7668;BME280;3876;42.204;24.686;2023-01-01T08:11:13;101042.78;;;4.34;100.00
7668;BME280;3876;42.204;24.686;2023-01-01T08:13:40;101043.03;;;4.46;100.00
7668;BME280;3876;42.204;24.686;2023-01-01T08:16:07;101023.50;;;4.43;100.00
7668;BME280;3876;42.204;24.686;2023-01-01T08:18:35;101022.13;;;4.59;100.00
7668;BME280;3876;42.204;24.686;2023-01-01T08:21:03;101045.41;;;4.80;100.00
7668;BME280;3876;42.204;24.686;2023-01-01T08:23:30;101045.66;;;4.92;100.00
7668;BME280;3876;42.204;24.686;2023-01-01T08:25:58;101051.84;;;5.06;100.00
7668;BME280;3876;42.204;24.686;2023-01-01T08:28:24;101037.41;;;5.05;100.00
7668;BME280;3876;42.204;24.686;2023-01-01T08:30:52;101051.31;;;5.22;100.00
7668;BME280;3876;42.204;24.686;2023-01-01T08:33:19;101053.19;;;5.34;100.00
7668;BME280;3876;42.204;24.686;2023-01-01T08:35:48;101040.56;;;5.40;100.00
7668;BME280;3876;42.204;24.686;2023-01-01T08:38:15;101048.56;;;5.61;100.00
7668;BME280;3876;42.204;24.686;2023-01-01T08:40:42;101035.13;;;5.68;100.00
7668;BME280;3876;42.204;24.686;2023-01-01T08:43:09;101044.00;;;5.93;100.00
7668;BME280;3876;42.204;24.686;2023-01-01T08:45:35;101037.44;;;6.07;100.00
7668;BME280;3876;42.204;24.686;2023-01-01T08:48:03;101039.38;;;6.23;100.00
7668;BME280;3876;42.204;24.686;2023-01-01T08:50:29;101042.09;;;6.39;100.00
7668;BME280;3876;42.204;24.686;2023-01-01T08:52:58;101031.25;;;6.55;100.00
7668;BME280;3876;42.204;24.686;2023-01-01T08:55:25;101026.38;;;6.73;100.00
7668;BME280;3876;42.204;24.686;2023-01-01T08:57:51;101032.47;;;6.85;100.00
7668;BME280;3876;42.204;24.686;2023-01-01T09:00:18;101023.25;;;6.98;100.00
7668;BME280;3876;42.204;24.686;2023-01-01T09:02:45;101028.53;;;7.18;100.00
7668;BME280;3876;42.204;24.686;2023-01-01T09:05:12;101027.84;;;7.32;100.00
7668;BME280;3876;42.204;24.686;2023-01-01T09:07:38;101034.78;;;7.50;100.00
7668;BME280;3876;42.204;24.686;2023-01-01T09:10:07;101030.63;;;7.63;100.00
7668;BME280;3876;42.204;24.686;2023-01-01T09:12:34;101022.31;;;7.85;100.00
7668;BME280;3876;42.204;24.686;2023-01-01T09:15:01;101018.94;;;7.92;100.00
7668;BME280;3876;42.204;24.686;2023-01-01T09:17:28;101019.88;;;8.03;100.00
7668;BME280;3876;42.204;24.686;2023-01-01T09:19:54;101011.41;;;8.18;100.00
7668;BME280;3876;42.204;24.686;2023-01-01T09:22:21;101012.41;;;8.36;100.00
7668;BME280;3876;42.204;24.686;2023-01-01T09:24:48;101004.78;;;8.46;100.00
7668;BME280;3876;42.204;24.686;2023-01-01T09:27:16;100986.00;;;8.37;100.00
7668;BME280;3876;42.204;24.686;2023-01-01T09:29:43;101000.56;;;8.63;100.00
7668;BME280;3876;42.204;24.686;2023-01-01T09:32:09;100995.53;;;8.78;100.00
7668;BME280;3876;42.204;24.686;2023-01-01T09:34:36;100987.00;;;8.82;100.00
7668;BME280;3876;42.204;24.686;2023-01-01T09:37:03;100986.16;;;8.93;100.00
7668;BME280;3876;42.204;24.686;2023-01-01T09:39:30;100985.31;;;9.08;100.00
7668;BME280;3876;42.204;24.686;2023-01-01T09:42:05;100985.34;;;9.17;100.00
7668;BME280;3876;42.204;24.686;2023-01-01T09:47:36;100970.84;;;9.59;100.00
7668;BME280;3876;42.204;24.686;2023-01-01T09:50:07;100972.53;;;9.67;100.00
7668;BME280;3876;42.204;24.686;2023-01-01T09:52:47;100969.97;;;9.72;100.00
7668;BME280;3876;42.204;24.686;2023-01-01T09:55:21;100976.78;;;9.88;100.00
7668;BME280;3876;42.204;24.686;2023-01-01T09:57:50;100968.16;;;10.10;100.00
7668;BME280;3876;42.204;24.686;2023-01-01T10:00:19;100972.44;;;10.20;98.93
7668;BME280;3876;42.204;24.686;2023-01-01T10:03:14;100973.25;;;10.25;97.91
7668;BME280;3876;42.204;24.686;2023-01-01T10:05:50;100966.41;;;10.33;96.06
7668;BME280;3876;42.204;24.686;2023-01-01T10:08:29;100964.69;;;10.32;95.12
7668;BME280;3876;42.204;24.686;2023-01-01T10:11:05;100962.09;;;10.38;95.56
7668;BME280;3876;42.204;24.686;2023-01-01T10:13:38;100961.22;;;10.45;96.47
7668;BME280;3876;42.204;24.686;2023-01-01T10:16:12;100962.00;;;10.58;94.82
7668;BME280;3876;42.204;24.686;2023-01-01T10:18:45;100962.00;;;10.61;94.37
7668;BME280;3876;42.204;24.686;2023-01-01T10:21:16;100955.94;;;10.70;94.11
7668;BME280;3876;42.204;24.686;2023-01-01T10:23:46;100941.41;;;10.70;93.52
7668;BME280;3876;42.204;24.686;2023-01-01T10:26:16;100956.72;;;10.88;92.89
7668;BME280;3876;42.204;24.686;2023-01-01T10:28:53;100953.22;;;10.98;92.50
7668;BME280;3876;42.204;24.686;2023-01-01T10:31:30;100956.56;;;11.05;92.97
7668;BME280;3876;42.204;24.686;2023-01-01T10:33:58;100949.66;;;11.12;93.11
7668;BME280;3876;42.204;24.686;2023-01-01T10:36:26;100937.66;;;11.15;92.60
7668;BME280;3876;42.204;24.686;2023-01-01T10:38:53;100934.22;;;11.21;92.74
7668;BME280;3876;42.204;24.686;2023-01-01T10:41:20;100929.88;;;11.27;93.54
7668;BME280;3876;42.204;24.686;2023-01-01T10:43:47;100933.16;;;11.41;92.85
7668;BME280;3876;42.204;24.686;2023-01-01T10:46:17;100927.94;;;11.50;92.11
7668;BME280;3876;42.204;24.686;2023-01-01T10:49:08;100922.75;;;11.53;92.34
7668;BME280;3876;42.204;24.686;2023-01-01T10:51:37;100914.94;;;11.67;92.41
7668;BME280;3876;42.204;24.686;2023-01-01T10:54:24;100925.88;;;11.89;91.11
7668;BME280;3876;42.204;24.686;2023-01-01T10:56:54;100917.16;;;11.99;90.33
7668;BME280;3876;42.204;24.686;2023-01-01T10:59:35;100922.25;;;12.05;89.71
7668;BME280;3876;42.204;24.686;2023-01-01T11:02:18;100917.97;;;12.04;88.58
7668;BME280;3876;42.204;24.686;2023-01-01T11:04:47;100913.59;;;12.12;89.06
7668;BME280;3876;42.204;24.686;2023-01-01T11:07:26;100914.34;;;12.19;88.12
7668;BME280;3876;42.204;24.686;2023-01-01T11:09:58;100911.69;;;12.28;87.96
7668;BME280;3876;42.204;24.686;2023-01-01T11:12:29;100897.97;;;12.27;86.96
7668;BME280;3876;42.204;24.686;2023-01-01T11:14:57;100913.19;;;12.42;85.16
7668;BME280;3876;42.204;24.686;2023-01-01T11:17:25;100909.78;;;12.43;84.63
7668;BME280;3876;42.204;24.686;2023-01-01T11:19:55;100911.34;;;12.50;85.66
7668;BME280;3876;42.204;24.686;2023-01-01T11:22:39;100904.34;;;12.61;85.51
7668;BME280;3876;42.204;24.686;2023-01-01T11:25:19;100908.50;;;12.70;84.59
7668;BME280;3876;42.204;24.686;2023-01-01T11:27:47;100899.88;;;12.74;83.81
7668;BME280;3876;42.204;24.686;2023-01-01T11:30:20;100893.78;;;12.80;83.70
7668;BME280;3876;42.204;24.686;2023-01-01T11:32:48;100894.53;;;12.86;83.77
7668;BME280;3876;42.204;24.686;2023-01-01T11:35:18;100891.88;;;12.91;84.15
7668;BME280;3876;42.204;24.686;2023-01-01T11:37:49;100884.16;;;12.91;83.48
7668;BME280;3876;42.204;24.686;2023-01-01T11:40:17;100878.09;;;12.95;83.76
7668;BME280;3876;42.204;24.686;2023-01-01T11:42:48;100880.53;;;13.04;83.49
7668;BME280;3876;42.204;24.686;2023-01-01T11:45:18;100874.47;;;13.08;83.74
7668;BME280;3876;42.204;24.686;2023-01-01T11:47:50;100876.06;;;13.15;83.66
7668;BME280;3876;42.204;24.686;2023-01-01T11:50:24;100866.53;;;13.20;83.57
7668;BME280;3876;42.204;24.686;2023-01-01T11:52:52;100868.16;;;13.27;83.13
7668;BME280;3876;42.204;24.686;2023-01-01T11:55:28;100866.25;;;13.35;80.79
7668;BME280;3876;42.204;24.686;2023-01-01T11:58:03;100845.69;;;13.34;80.77
7668;BME280;3876;42.204;24.686;2023-01-01T12:00:34;100845.69;;;13.34;80.22
7668;BME280;3876;42.204;24.686;2023-01-01T12:03:10;100860.91;;;13.46;80.21
7668;BME280;3876;42.204;24.686;2023-01-01T12:05:46;100854.84;;;13.48;79.17
7668;BME280;3876;42.204;24.686;2023-01-01T12:08:21;100861.63;;;13.54;78.86
7668;BME280;3876;42.204;24.686;2023-01-01T12:10:54;100858.22;;;13.52;78.29
7668;BME280;3876;42.204;24.686;2023-01-01T12:13:27;100837.75;;;13.44;77.81
7668;BME280;3876;42.204;24.686;2023-01-01T12:16:01;100846.13;;;13.55;78.69
7668;BME280;3876;42.204;24.686;2023-01-01T12:18:38;100857.97;;;13.65;77.31
7668;BME280;3876;42.204;24.686;2023-01-01T12:21:15;100851.03;;;13.67;77.39
7668;BME280;3876;42.204;24.686;2023-01-01T12:23:43;100843.97;;;13.79;76.71
7668;BME280;3876;42.204;24.686;2023-01-01T12:26:16;100852.44;;;13.84;75.41
7668;BME280;3876;42.204;24.686;2023-01-01T12:29:02;100835.28;;;13.83;75.88
7668;BME280;3876;42.204;24.686;2023-01-01T12:31:40;100842.97;;;13.86;73.79
7668;BME280;3876;42.204;24.686;2023-01-01T12:34:15;100842.84;;;13.92;75.32
7668;BME280;3876;42.204;24.686;2023-01-01T12:36:52;100836.69;;;13.99;74.66
7668;BME280;3876;42.204;24.686;2023-01-01T12:39:53;100845.22;;;14.01;74.57
7668;BME280;3876;42.204;24.686;2023-01-01T12:42:33;100847.81;;;13.99;73.53
7668;BME280;3876;42.204;24.686;2023-01-01T12:45:28;100843.50;;;14.00;74.20
7668;BME280;3876;42.204;24.686;2023-01-01T12:48:18;100843.44;;;14.03;72.98
7668;BME280;3876;42.204;24.686;2023-01-01T12:50:52;100839.91;;;14.07;73.11
7668;BME280;3876;42.204;24.686;2023-01-01T12:53:31;100840.72;;;14.10;73.06
7668;BME280;3876;42.204;24.686;2023-01-01T12:56:11;100843.22;;;14.12;73.07
7668;BME280;3876;42.204;24.686;2023-01-01T12:58:43;100836.41;;;14.11;72.99
7668;BME280;3876;42.204;24.686;2023-01-01T13:01:18;100831.19;;;14.14;73.54
7668;BME280;3876;42.204;24.686;2023-01-01T13:03:48;100834.50;;;14.19;73.99
7668;BME280;3876;42.204;24.686;2023-01-01T13:06:19;100832.75;;;14.21;73.18
7668;BME280;3876;42.204;24.686;2023-01-01T13:08:53;100832.75;;;14.19;72.81
7668;BME280;3876;42.204;24.686;2023-01-01T13:11:22;100835.31;;;14.21;73.00
7668;BME280;3876;42.204;24.686;2023-01-01T13:13:51;100840.50;;;14.19;73.51
7668;BME280;3876;42.204;24.686;2023-01-01T13:16:31;100843.00;;;14.24;73.44
7668;BME280;3876;42.204;24.686;2023-01-01T13:18:59;100841.22;;;14.26;73.68